Time;durP1;ratioP1;P1;durP2;ratioP2;P2;SDS_P1;SDS_P2;PMS_P1;PMS_P2;Temp;Humidity;BMP_temperature;BMP_pressure;BME280_temperature;BME280_humidity;BME280_pressure;Samples;Min_cycle;Max_cycle;Signal;HPM_P1;HPM_P2
2023/01/16 00:00:54;;;;;;;5.18;1.10;;;6.30;99.90;;;;;;5057706;28;20044;-46
2023/01/16 00:03:20;;;;;;;7.47;1.20;;;6.30;99.90;;;;;;5050976;28;20119;-50
2023/01/16 00:05:45;;;;;;;8.50;1.30;;;6.30;99.90;;;;;;5053184;28;20512;-47
2023/01/16 00:08:11;;;;;;;5.38;1.20;;;6.20;99.90;;;;;;5056330;28;20028;-50
2023/01/16 00:10:37;;;;;;;4.47;1.10;;;6.20;99.90;;;;;;5053237;28;20037;-49
2023/01/16 00:13:03;;;;;;;6.32;1.17;;;6.20;99.90;;;;;;5056374;28;20035;-49
2023/01/16 00:15:28;;;;;;;4.35;1.00;;;6.20;99.90;;;;;;5057472;28;20041;-51
2023/01/16 00:17:54;;;;;;;6.38;1.38;;;6.10;99.90;;;;;;5058637;28;20024;-47
2023/01/16 00:20:19;;;;;;;3.58;1.40;;;6.10;99.90;;;;;;5057769;28;20040;-47
2023/01/16 00:22:45;;;;;;;4.68;1.00;;;6.10;99.90;;;;;;5060306;28;20068;-51
2023/01/16 00:25:11;;;;;;;7.13;1.10;;;6.00;99.90;;;;;;5051156;28;20119;-47
2023/01/16 00:27:37;;;;;;;6.30;1.25;;;6.00;99.90;;;;;;5057373;28;20033;-48
2023/01/16 00:30:04;;;;;;;6.20;1.50;;;6.20;99.90;;;;;;5054052;28;20467;-47
2023/01/16 00:32:29;;;;;;;5.28;1.27;;;6.10;99.90;;;;;;5053432;28;20090;-47
2023/01/16 00:34:55;;;;;;;6.50;1.80;;;6.00;99.90;;;;;;5055072;28;20741;-49
2023/01/16 00:37:20;;;;;;;5.20;1.23;;;6.10;99.90;;;;;;5055468;28;20067;-49
2023/01/16 00:39:46;;;;;;;6.28;1.20;;;6.10;99.90;;;;;;5059586;28;20070;-48
2023/01/16 00:42:12;;;;;;;5.47;1.25;;;6.20;99.90;;;;;;5059679;28;20041;-47
2023/01/16 00:44:37;;;;;;;6.60;1.00;;;6.10;99.90;;;;;;5049378;28;20041;-49
2023/01/16 00:47:04;;;;;;;4.85;1.25;;;6.20;99.90;;;;;;5060303;28;20028;-48
2023/01/16 00:49:29;;;;;;;8.13;1.38;;;6.30;99.90;;;;;;5054583;28;20094;-49
2023/01/16 00:51:55;;;;;;;4.22;1.13;;;6.20;99.90;;;;;;5057854;28;20041;-47
2023/01/16 00:54:21;;;;;;;7.32;1.50;;;6.20;99.90;;;;;;5057425;28;20070;-49
2023/01/16 00:56:46;;;;;;;5.88;1.20;;;6.10;99.90;;;;;;5056677;28;20224;-49
2023/01/16 00:59:12;;;;;;;8.35;1.63;;;6.00;99.90;;;;;;5060440;28;20170;-45
2023/01/16 01:01:37;;;;;;;4.85;1.25;;;5.80;99.90;;;;;;5062706;28;20479;-52
2023/01/16 01:04:03;;;;;;;5.97;1.38;;;5.90;99.90;;;;;;5056411;28;20067;-48
2023/01/16 01:06:29;;;;;;;4.68;1.00;;;5.90;99.90;;;;;;5055805;28;20752;-52
2023/01/16 01:08:55;;;;;;;5.30;1.55;;;5.80;99.90;;;;;;5061499;28;20360;-50
2023/01/16 01:11:21;;;;;;;3.50;1.38;;;5.70;99.90;;;;;;5061847;28;20029;-48
2023/01/16 01:13:46;;;;;;;5.65;1.23;;;5.70;99.90;;;;;;5058334;28;20028;-47
2023/01/16 01:16:13;;;;;;;7.28;1.40;;;5.70;99.90;;;;;;5058213;28;20040;-51
2023/01/16 01:18:38;;;;;;;5.25;1.55;;;5.60;99.90;;;;;;5050551;28;20044;-51
2023/01/16 01:21:05;;;;;;;7.68;1.40;;;5.60;99.90;;;;;;5063275;28;20033;-48
2023/01/16 01:23:30;;;;;;;7.30;1.60;;;5.60;99.90;;;;;;5060793;28;20517;-47
2023/01/16 01:25:56;;;;;;;4.85;1.10;;;5.60;99.90;;;;;;5063440;28;20173;-49
2023/01/16 01:28:22;;;;;;;2.42;1.00;;;5.60;99.90;;;;;;5050240;28;20681;-49
2023/01/16 01:30:47;;;;;;;7.13;1.60;;;5.50;99.90;;;;;;5062461;28;20407;-49
2023/01/16 01:33:13;;;;;;;6.18;1.00;;;5.50;99.90;;;;;;5054921;28;20396;-52
2023/01/16 01:35:38;;;;;;;9.52;1.65;;;5.50;99.90;;;;;;5056948;28;20033;-53
2023/01/16 01:38:04;;;;;;;4.57;1.27;;;5.40;99.90;;;;;;5059286;28;20033;-49
2023/01/16 01:40:30;;;;;;;8.95;1.40;;;5.50;99.90;;;;;;5053323;28;20404;-49
2023/01/16 01:42:55;;;;;;;5.93;1.27;;;5.40;99.90;;;;;;5061732;28;20113;-50
2023/01/16 01:45:27;;;;;;;4.57;1.40;;;5.30;99.90;;;;;;5056588;28;20063;-49
2023/01/16 01:47:56;;;;;;;8.43;1.40;;;5.40;99.90;;;;;;5062958;28;20025;-47
2023/01/16 01:50:46;;;;;;;7.28;1.83;;;5.50;99.90;;;;;;5058504;28;20028;-49
2023/01/16 01:53:34;;;;;;;4.10;1.10;;;5.40;99.90;;;;;;5059044;28;20407;-48
2023/01/16 01:56:26;;;;;;;6.47;1.67;;;5.40;99.90;;;;;;5059344;28;20128;-50
2023/01/16 01:58:55;;;;;;;6.70;1.55;;;5.50;99.90;;;;;;5041424;28;20024;-47
2023/01/16 02:01:21;;;;;;;3.65;1.38;;;5.40;99.90;;;;;;5067729;28;20829;-51
2023/01/16 02:04:18;;;;;;;3.38;1.33;;;5.30;99.90;;;;;;5059867;28;20032;-50
2023/01/16 02:06:52;;;;;;;4.68;1.35;;;5.30;99.90;;;;;;5048391;28;20130;-48
2023/01/16 02:09:18;;;;;;;5.75;1.20;;;5.30;99.90;;;;;;5063259;28;20509;-50
2023/01/16 02:11:53;;;;;;;5.85;1.20;;;5.30;99.90;;;;;;5063181;28;20115;-53
2023/01/16 02:14:19;;;;;;;4.95;1.45;;;5.30;99.90;;;;;;5056055;28;20424;-50
2023/01/16 02:19:52;;;;;;;5.88;1.45;;;5.50;99.90;;;;;;5065163;28;20207;-47
2023/01/16 02:22:29;;;;;;;6.88;1.23;;;5.40;99.90;;;;;;5062020;28;20028;-48
2023/01/16 02:25:26;;;;;;;5.25;1.20;;;5.50;99.90;;;;;;5060042;28;20044;-49
2023/01/16 02:28:34;;;;;;;5.13;1.40;;;5.60;99.90;;;;;;5061668;28;20041;-51
2023/01/16 02:31:25;;;;;;;3.17;0.88;;;5.40;99.90;;;;;;5063022;28;20043;-51
2023/01/16 02:34:02;;;;;;;7.00;1.75;;;5.30;99.90;;;;;;5058785;28;20410;-49
2023/01/16 02:36:38;;;;;;;6.60;1.40;;;5.40;99.90;;;;;;5057560;28;20492;-49
2023/01/16 02:39:08;;;;;;;4.95;1.23;;;5.40;99.90;;;;;;5063256;28;20060;-48
2023/01/16 02:42:07;;;;;;;4.93;1.08;;;5.50;99.90;;;;;;5061949;28;20400;-46
2023/01/16 02:44:48;;;;;;;5.07;1.08;;;5.60;99.90;;;;;;5065893;28;20071;-47
2023/01/16 02:47:25;;;;;;;4.63;1.13;;;5.50;99.90;;;;;;5056266;28;20655;-48
2023/01/16 02:50:02;;;;;;;6.15;1.40;;;5.60;99.90;;;;;;5059351;28;20039;-50
2023/01/16 02:52:57;;;;;;;8.77;1.20;;;5.60;99.90;;;;;;5062438;28;20735;-49
2023/01/16 02:55:36;;;;;;;3.30;1.00;;;5.60;99.90;;;;;;5063890;28;20086;-52
2023/01/16 02:58:06;;;;;;;7.75;1.00;;;5.70;99.90;;;;;;5057686;28;20029;-49
2023/01/16 03:00:34;;;;;;;3.63;0.98;;;5.80;99.90;;;;;;5057384;28;20040;-49
2023/01/16 03:03:00;;;;;;;4.78;1.15;;;5.90;99.90;;;;;;5056742;28;20031;-47
2023/01/16 03:05:31;;;;;;;4.15;1.10;;;5.90;99.90;;;;;;5059697;28;20033;-49
2023/01/16 03:08:24;;;;;;;5.72;1.48;;;5.70;99.90;;;;;;5066611;28;20056;-52
2023/01/16 03:10:58;;;;;;;4.78;1.30;;;5.70;99.90;;;;;;5058559;28;20143;-47
2023/01/16 03:13:45;;;;;;;5.32;0.95;;;5.60;99.90;;;;;;5053845;28;20519;-53
2023/01/16 03:16:35;;;;;;;4.30;1.08;;;5.60;99.90;;;;;;5062809;28;20093;-50
2023/01/16 03:19:25;;;;;;;3.22;0.90;;;5.60;99.90;;;;;;5050608;28;20508;-48
2023/01/16 03:21:54;;;;;;;2.30;0.82;;;5.60;99.90;;;;;;5057529;28;20045;-49
2023/01/16 03:24:42;;;;;;;5.93;0.95;;;5.60;99.90;;;;;;5059931;28;20488;-50
2023/01/16 03:27:36;;;;;;;2.88;0.80;;;5.60;99.90;;;;;;5060314;28;20045;-47
2023/01/16 03:30:10;;;;;;;3.83;0.88;;;5.60;99.90;;;;;;5056165;28;20127;-47
2023/01/16 03:32:44;;;;;;;8.40;1.10;;;5.60;99.90;;;;;;5059492;28;20067;-46
2023/01/16 03:35:13;;;;;;;;;;;5.60;99.90;;;;;;5061510;28;20141;-50
2023/01/16 03:37:46;;;;;;;7.15;1.10;;;5.40;99.90;;;;;;5064907;28;20546;-48
2023/01/16 03:40:16;;;;;;;3.08;0.90;;;5.40;99.90;;;;;;5058585;28;20056;-47
2023/01/16 03:42:55;;;;;;;3.47;1.23;;;5.50;99.90;;;;;;5056391;28;20040;-49
2023/01/16 03:45:28;;;;;;;3.50;0.80;;;5.50;99.90;;;;;;5054792;28;20507;-50
2023/01/16 03:48:05;;;;;;;4.10;1.00;;;5.60;99.90;;;;;;5061611;28;20102;-51
2023/01/16 03:50:31;;;;;;;4.90;0.95;;;5.70;99.90;;;;;;5053180;28;20450;-47
2023/01/16 03:53:03;;;;;;;4.25;1.08;;;5.60;99.90;;;;;;5064894;28;20082;-47
2023/01/16 03:55:53;;;;;;;5.55;1.08;;;5.60;99.90;;;;;;5058557;28;20500;-46
2023/01/16 03:58:27;;;;;;;4.97;1.30;;;5.60;99.90;;;;;;5054236;28;20037;-50
2023/01/16 04:01:04;;;;;;;4.53;1.02;;;5.70;99.90;;;;;;5051139;28;20039;-46
2023/01/16 04:03:44;;;;;;;4.20;1.20;;;5.70;99.90;;;;;;5056929;28;20033;-49
2023/01/16 04:06:15;;;;;;;4.65;1.13;;;5.70;99.90;;;;;;5061483;28;20021;-51
2023/01/16 04:08:42;;;;;;;2.97;1.15;;;5.70;99.90;;;;;;5056260;28;20047;-49
2023/01/16 04:11:09;;;;;;;2.72;0.90;;;5.60;99.90;;;;;;5053534;28;20036;-52
2023/01/16 04:13:38;;;;;;;4.07;1.10;;;5.60;99.90;;;;;;5059128;28;20487;-48
2023/01/16 04:16:08;;;;;;;3.38;1.10;;;5.50;99.90;;;;;;5062990;28;20029;-48
2023/01/16 04:18:35;;;;;;;2.92;1.00;;;5.60;99.90;;;;;;5054081;28;20063;-47
2023/01/16 04:21:04;;;;;;;6.47;1.00;;;5.60;99.90;;;;;;5061752;28;20102;-48
2023/01/16 04:23:30;;;;;;;1.95;0.80;;;5.50;99.90;;;;;;5058257;28;20029;-49
2023/01/16 04:25:55;;;;;;;3.05;0.85;;;5.50;99.90;;;;;;5054475;28;20512;-48
2023/01/16 04:28:21;;;;;;;0.88;0.50;;;5.50;99.90;;;;;;5061757;28;20076;-49
2023/01/16 04:30:46;;;;;;;3.00;0.85;;;5.60;99.90;;;;;;5051989;28;20040;-46
2023/01/16 04:33:12;;;;;;;2.95;0.98;;;5.50;99.90;;;;;;5051030;28;20098;-48
2023/01/16 04:35:38;;;;;;;1.95;0.90;;;5.60;99.90;;;;;;5062194;28;20037;-49
2023/01/16 04:38:03;;;;;;;3.47;0.98;;;5.60;99.90;;;;;;5061009;28;20551;-48
2023/01/16 04:40:29;;;;;;;3.30;0.90;;;5.60;99.90;;;;;;5050564;28;20029;-52
2023/01/16 04:42:54;;;;;;;3.25;1.17;;;5.50;99.90;;;;;;5054333;28;20093;-47
2023/01/16 04:45:21;;;;;;;1.55;0.70;;;5.60;99.90;;;;;;5051839;28;20037;-47
2023/01/16 04:47:47;;;;;;;1.67;0.90;;;5.70;99.90;;;;;;5061763;28;20064;-54
2023/01/16 04:50:13;;;;;;;5.68;0.90;;;5.70;99.90;;;;;;5058452;28;20039;-50
2023/01/16 04:52:40;;;;;;;1.67;0.75;;;5.80;99.90;;;;;;5054532;28;20036;-51
2023/01/16 04:55:06;;;;;;;2.63;0.80;;;5.60;99.90;;;;;;5059485;28;20028;-47
2023/01/16 04:57:32;;;;;;;2.63;0.80;;;5.50;99.90;;;;;;5059243;28;20032;-46
2023/01/16 04:59:58;;;;;;;2.00;0.77;;;5.40;99.90;;;;;;5054522;28;20021;-52
2023/01/16 05:02:23;;;;;;;1.83;0.60;;;5.40;99.90;;;;;;5061254;28;20072;-49
2023/01/16 05:04:49;;;;;;;1.75;0.73;;;5.50;99.90;;;;;;5054130;28;20045;-51
2023/01/16 05:07:14;;;;;;;4.60;0.88;;;5.60;99.90;;;;;;5061135;28;20036;-50
2023/01/16 05:09:40;;;;;;;3.42;0.80;;;5.50;99.90;;;;;;5060972;28;20064;-48
2023/01/16 05:12:06;;;;;;;2.55;1.00;;;5.40;99.90;;;;;;5061182;28;21265;-52
2023/01/16 05:14:31;;;;;;;1.58;0.77;;;5.40;99.90;;;;;;5058767;28;20037;-47
2023/01/16 05:16:57;;;;;;;4.85;1.15;;;5.50;99.90;;;;;;5060992;28;20052;-48
2023/01/16 05:19:22;;;;;;;3.17;1.00;;;5.60;99.90;;;;;;5062174;28;20044;-51
2023/01/16 05:21:48;;;;;;;2.65;0.90;;;5.70;99.90;;;;;;5061659;28;20029;-48
2023/01/16 05:24:13;;;;;;;1.65;0.77;;;5.70;99.90;;;;;;5059213;28;20116;-48
2023/01/16 05:26:39;;;;;;;3.38;0.90;;;5.70;99.90;;;;;;5062022;28;20059;-48
2023/01/16 05:29:05;;;;;;;4.65;1.10;;;5.80;99.90;;;;;;5067498;28;20108;-48
2023/01/16 05:31:30;;;;;;;3.63;1.25;;;5.90;99.90;;;;;;5062845;28;20206;-49
2023/01/16 05:33:56;;;;;;;5.00;1.40;;;5.80;99.90;;;;;;5064921;28;20091;-48
2023/01/16 05:36:21;;;;;;;5.65;1.50;;;5.80;99.90;;;;;;5058793;28;20129;-47
2023/01/16 05:38:47;;;;;;;4.97;1.45;;;5.70;99.90;;;;;;5058808;28;20036;-50
2023/01/16 05:41:13;;;;;;;3.72;1.13;;;5.80;99.90;;;;;;5064311;28;20032;-46
2023/01/16 05:43:39;;;;;;;5.38;1.30;;;5.80;99.90;;;;;;5056551;28;20111;-52
2023/01/16 05:46:04;;;;;;;5.15;1.40;;;5.80;99.90;;;;;;5061734;28;20117;-47
2023/01/16 05:48:32;;;;;;;4.60;1.20;;;5.90;99.90;;;;;;5056570;28;20044;-47
2023/01/16 05:50:57;;;;;;;3.25;1.00;;;5.90;99.90;;;;;;5060832;28;20556;-50
2023/01/16 05:53:23;;;;;;;5.10;1.00;;;5.90;99.90;;;;;;5063896;28;20032;-47
2023/01/16 05:55:48;;;;;;;2.78;0.70;;;6.00;99.90;;;;;;5061878;28;20025;-47
2023/01/16 05:58:16;;;;;;;4.32;1.20;;;6.00;99.90;;;;;;5059443;28;20017;-49
2023/01/16 06:00:43;;;;;;;2.88;1.00;;;6.00;99.90;;;;;;5057136;28;20036;-48
2023/01/16 06:03:09;;;;;;;5.22;1.73;;;5.90;99.90;;;;;;5057405;28;20509;-51
2023/01/16 06:05:35;;;;;;;4.32;0.82;;;6.00;99.90;;;;;;5061134;28;20436;-49
2023/01/16 06:08:01;;;;;;;2.88;1.00;;;5.90;99.90;;;;;;5061091;28;20060;-50
2023/01/16 06:10:27;;;;;;;5.15;1.17;;;5.90;99.90;;;;;;5064002;28;20118;-49
2023/01/16 06:12:53;;;;;;;3.85;1.08;;;6.00;99.90;;;;;;5061250;28;20071;-50
2023/01/16 06:15:19;;;;;;;3.90;1.00;;;5.90;99.90;;;;;;5058655;28;20021;-52
2023/01/16 06:17:45;;;;;;;3.22;0.75;;;6.00;99.90;;;;;;5061673;28;20380;-48
2023/01/16 06:20:11;;;;;;;2.35;0.80;;;6.00;99.90;;;;;;5061084;28;20036;-47
2023/01/16 06:22:36;;;;;;;5.82;1.10;;;6.10;99.90;;;;;;5054638;28;20036;-48
2023/01/16 06:25:02;;;;;;;4.90;1.13;;;6.10;99.90;;;;;;5062888;28;20110;-47
2023/01/16 06:27:28;;;;;;;5.03;2.03;;;6.00;99.90;;;;;;5062346;28;20403;-46
2023/01/16 06:29:53;;;;;;;4.85;1.15;;;6.00;99.90;;;;;;5060786;28;20110;-50
2023/01/16 06:32:19;;;;;;;5.72;1.15;;;6.10;99.90;;;;;;5053495;28;20060;-49
2023/01/16 06:34:45;;;;;;;2.45;1.00;;;6.10;99.90;;;;;;5065439;28;20028;-48
2023/01/16 06:37:11;;;;;;;5.47;1.80;;;6.10;99.90;;;;;;5067093;28;20036;-47
2023/01/16 06:39:37;;;;;;;5.60;1.80;;;6.10;99.90;;;;;;5057128;28;20045;-50
2023/01/16 06:42:04;;;;;;;2.47;1.00;;;6.10;99.90;;;;;;5055601;28;20029;-48
2023/01/16 06:44:30;;;;;;;3.72;1.20;;;6.00;99.90;;;;;;5061179;28;20032;-46
2023/01/16 06:46:56;;;;;;;2.58;0.93;;;6.00;99.90;;;;;;5057845;28;20033;-47
2023/01/16 06:49:22;;;;;;;3.25;0.65;;;6.10;99.90;;;;;;5054706;28;20116;-47
2023/01/16 06:51:47;;;;;;;4.72;1.23;;;6.10;99.90;;;;;;5058914;28;20470;-49
2023/01/16 06:54:13;;;;;;;3.78;0.73;;;6.20;99.90;;;;;;5057288;28;20054;-48
2023/01/16 06:56:39;;;;;;;3.75;0.85;;;6.10;99.90;;;;;;5056217;28;20392;-52
2023/01/16 06:59:04;;;;;;;2.45;0.68;;;6.10;99.90;;;;;;5057623;28;20028;-51
2023/01/16 07:01:30;;;;;;;2.88;0.77;;;6.10;99.90;;;;;;5051830;28;20126;-48
2023/01/16 07:03:56;;;;;;;2.38;0.90;;;6.10;99.90;;;;;;5051389;28;20400;-47
2023/01/16 07:06:21;;;;;;;1.45;0.70;;;6.10;99.90;;;;;;5063652;28;20040;-51
2023/01/16 07:08:50;;;;;;;3.45;0.90;;;6.20;99.90;;;;;;5056505;28;20031;-54
2023/01/16 07:11:17;;;;;;;4.57;0.90;;;6.40;99.90;;;;;;5058679;28;20057;-50
2023/01/16 07:13:42;;;;;;;3.47;0.98;;;6.30;99.90;;;;;;5051065;28;20041;-50
2023/01/16 07:24:29;;;;;;;4.57;0.95;;;6.10;99.90;;;;;;5048747;28;20094;-51
2023/01/16 07:27:02;;;;;;;3.20;0.93;;;6.10;99.90;;;;;;5054321;28;20086;-52
2023/01/16 07:29:29;;;;;;;;;;;6.20;99.90;;;;;;5054089;28;20065;-52
2023/01/16 07:31:56;;;;;;;2.30;1.00;;;6.30;99.90;;;;;;5055595;28;20003;-52
2023/01/16 07:34:22;;;;;;;3.08;1.08;;;6.20;99.90;;;;;;5051828;28;20041;-48
2023/01/16 07:36:48;;;;;;;1.30;0.82;;;6.20;99.90;;;;;;5060487;28;20115;-51
2023/01/16 07:39:13;;;;;;;2.75;0.88;;;6.20;99.90;;;;;;5059654;28;20028;-53
2023/01/16 07:41:39;;;;;;;3.90;1.08;;;6.30;99.90;;;;;;5065452;28;20377;-53
2023/01/16 07:44:06;;;;;;;4.38;0.80;;;6.20;99.90;;;;;;5052656;28;20116;-52
2023/01/16 07:46:31;;;;;;;3.65;0.98;;;6.20;99.90;;;;;;5064030;28;20037;-53
2023/01/16 07:48:57;;;;;;;3.13;1.20;;;6.20;99.90;;;;;;5057653;28;20036;-48
2023/01/16 07:51:23;;;;;;;4.13;1.30;;;6.20;99.90;;;;;;5059017;28;20446;-51
2023/01/16 07:53:49;;;;;;;2.78;1.00;;;6.30;99.90;;;;;;5066090;28;20359;-54
2023/01/16 07:56:14;;;;;;;4.35;1.85;;;6.30;99.90;;;;;;5059060;28;20029;-53
2023/01/16 07:58:42;;;;;;;5.22;2.30;;;6.20;99.90;;;;;;5053545;28;20041;-55
2023/01/16 08:01:09;;;;;;;4.60;1.90;;;6.30;99.90;;;;;;5058895;28;20483;-55
2023/01/16 08:03:35;;;;;;;6.03;2.47;;;6.20;99.90;;;;;;5060546;28;20546;-54
2023/01/16 08:06:02;;;;;;;6.03;2.42;;;6.30;99.90;;;;;;5060721;28;20052;-54
2023/01/16 08:08:28;;;;;;;6.55;1.75;;;6.30;99.90;;;;;;5054493;28;20090;-53
2023/01/16 08:10:59;;;;;;;4.78;1.40;;;6.20;99.90;;;;;;5056995;28;20032;-51
2023/01/16 08:13:25;;;;;;;2.78;1.48;;;6.10;99.90;;;;;;5057392;28;20037;-52
2023/01/16 08:15:51;;;;;;;13.52;2.65;;;6.10;99.90;;;;;;5056747;28;20040;-54
2023/01/16 08:18:18;;;;;;;5.53;2.00;;;6.10;99.90;;;;;;5061358;28;20046;-52
2023/01/16 08:20:44;;;;;;;3.70;1.70;;;6.20;99.90;;;;;;5058615;28;20472;-53
2023/01/16 08:23:10;;;;;;;5.38;1.60;;;6.20;99.90;;;;;;5057934;28;20040;-55
2023/01/16 08:25:36;;;;;;;4.78;1.60;;;6.10;99.90;;;;;;5059102;28;20033;-51
2023/01/16 08:28:01;;;;;;;6.55;1.60;;;6.10;99.90;;;;;;5053792;28;20506;-53
2023/01/16 08:30:27;;;;;;;3.97;1.40;;;6.20;99.90;;;;;;5063188;28;20403;-53
2023/01/16 08:33:00;;;;;;;10.80;2.00;;;6.10;99.90;;;;;;5057748;28;20044;-51
2023/01/16 08:35:26;;;;;;;;;;;6.10;99.90;;;;;;5057295;28;20025;-53
2023/01/16 08:37:51;;;;;;;3.85;1.25;;;6.10;99.90;;;;;;5054552;28;19921;-53
2023/01/16 08:40:18;;;;;;;5.00;1.35;;;6.10;99.90;;;;;;5061089;28;20036;-53
2023/01/16 08:53:46;;;;;;;3.55;1.40;;;6.20;99.90;;;;;;5056762;28;20040;-53
2023/01/16 08:56:12;;;;;;;4.55;1.40;;;6.20;99.90;;;;;;5055811;28;20036;-52
2023/01/16 08:58:37;;;;;;;30.33;14.38;;;6.10;99.90;;;;;;5057443;28;20047;-54
2023/01/16 09:01:03;;;;;;;4.25;1.15;;;6.00;99.90;;;;;;5059224;28;20036;-53
2023/01/16 09:03:28;;;;;;;5.00;1.20;;;6.00;99.90;;;;;;5049536;28;20037;-50
2023/01/16 09:05:54;;;;;;;3.28;1.27;;;5.90;99.90;;;;;;5059172;28;20033;-51
2023/01/16 09:08:20;;;;;;;6.15;1.50;;;6.00;99.90;;;;;;5059023;28;20032;-55
2023/01/16 09:13:48;;;;;;;4.30;1.38;;;6.00;99.90;;;;;;5064820;28;20373;-53
2023/01/16 09:13:49;;;;;;;4.40;1.10;;;5.90;99.90;;;;;;5058320;28;20039;-54
2023/01/16 09:16:19;;;;;;;4.82;1.13;;;5.80;99.90;;;;;;5053473;28;20093;-52
2023/01/16 09:18:44;;;;;;;3.03;1.08;;;5.90;99.90;;;;;;5057807;28;20545;-53
2023/01/16 09:21:10;;;;;;;2.65;1.00;;;5.90;99.90;;;;;;5052766;28;20044;-55
2023/01/16 09:23:35;;;;;;;4.82;1.02;;;5.90;99.90;;;;;;5057425;28;20045;-54
2023/01/16 09:26:01;;;;;;;6.70;1.30;;;5.80;99.90;;;;;;5059149;28;20701;-52
2023/01/16 09:28:26;;;;;;;4.78;1.10;;;5.80;99.90;;;;;;5059904;28;20063;-52
2023/01/16 09:30:52;;;;;;;6.03;1.80;;;5.90;99.90;;;;;;5054774;28;20495;-52
2023/01/16 09:33:18;;;;;;;5.32;1.13;;;6.00;99.90;;;;;;5061242;28;20454;-52
2023/01/16 09:35:43;;;;;;;5.63;1.02;;;5.90;99.90;;;;;;5057796;28;20052;-51
2023/01/16 09:38:09;;;;;;;4.18;1.00;;;5.90;99.90;;;;;;5060710;28;20060;-53
2023/01/16 09:40:34;;;;;;;2.60;0.80;;;5.90;99.90;;;;;;5058593;28;20149;-53
2023/01/16 09:43:35;;;;;;;3.10;1.17;;;5.90;99.90;;;;;;5063418;28;20552;-53
2023/01/16 09:46:09;;;;;;;2.05;0.85;;;5.90;99.90;;;;;;5060136;28;20071;-52
2023/01/16 09:48:48;;;;;;;4.40;0.88;;;5.90;99.90;;;;;;5053568;28;20083;-54
2023/01/16 09:51:21;;;;;;;3.53;1.15;;;6.00;99.90;;;;;;5051319;28;20036;-52
2023/01/16 09:59:35;;;;;;;4.50;1.40;;;6.10;99.90;;;;;;5054980;28;20086;-53
2023/01/16 10:02:05;;;;;;;3.78;1.10;;;6.00;99.90;;;;;;5057700;28;20037;-52
2023/01/16 10:04:31;;;;;;;2.60;0.70;;;6.10;99.90;;;;;;5050150;28;20059;-52
2023/01/16 10:07:20;;;;;;;3.75;0.95;;;6.10;99.90;;;;;;5056660;28;20531;-49
2023/01/16 10:10:02;;;;;;;1.27;0.80;;;6.10;99.90;;;;;;5055734;28;20037;-51
2023/01/16 10:12:36;;;;;;;2.35;1.20;;;6.00;99.90;;;;;;5055349;28;20041;-50
2023/01/16 10:15:16;;;;;;;3.85;1.00;;;6.00;99.90;;;;;;5058018;28;20508;-50
2023/01/16 10:18:08;;;;;;;2.47;0.80;;;6.00;99.90;;;;;;5056731;28;20508;-52
2023/01/16 10:20:36;;;;;;;3.17;1.00;;;5.90;99.90;;;;;;5057218;28;20140;-53
2023/01/16 10:23:29;;;;;;;4.15;0.80;;;6.00;99.90;;;;;;5061454;28;20051;-53
2023/01/16 10:26:27;;;;;;;1.90;0.70;;;6.00;99.90;;;;;;5057380;28;20394;-54
2023/01/16 10:29:18;;;;;;;1.25;0.75;;;6.00;99.90;;;;;;5054372;28;20032;-49
2023/01/16 10:31:51;;;;;;;2.92;0.63;;;6.10;99.90;;;;;;5059471;28;20499;-51
2023/01/16 10:34:20;;;;;;;;;;;6.00;99.90;;;;;;5056574;28;20067;-52
2023/01/16 10:36:50;;;;;;;1.08;0.50;;;6.00;99.90;;;;;;5053451;28;20280;-53
2023/01/16 10:39:18;;;;;;;1.65;0.70;;;6.00;99.90;;;;;;5051763;28;20479;-52
2023/01/16 10:50:24;;;;;;;1.60;0.60;;;6.10;99.90;;;;;;5060312;28;20058;-54
2023/01/16 10:52:50;;;;;;;1.92;0.60;;;6.10;99.90;;;;;;5048186;28;20033;-53
2023/01/16 10:55:17;;;;;;;1.75;0.60;;;6.10;99.90;;;;;;5060471;28;20059;-54
2023/01/16 10:57:50;;;;;;;2.85;0.75;;;6.20;99.90;;;;;;5060865;28;20103;-53
2023/01/16 11:00:29;;;;;;;2.13;0.50;;;6.30;99.90;;;;;;5059609;28;20036;-56
2023/01/16 11:02:58;;;;;;;1.55;0.47;;;6.30;99.90;;;;;;5061275;28;20071;-52
2023/01/16 11:05:29;;;;;;;0.98;0.50;;;6.30;99.90;;;;;;5055133;28;20488;-54
2023/01/16 11:08:16;;;;;;;1.02;0.57;;;6.30;99.90;;;;;;5056783;28;20039;-54
2023/01/16 11:10:45;;;;;;;2.60;0.50;;;6.40;99.90;;;;;;5059909;28;20040;-52
2023/01/16 11:18:54;;;;;;;1.52;0.60;;;6.50;99.90;;;;;;5053612;28;20048;-53
2023/01/16 11:21:27;;;;;;;1.75;0.60;;;6.50;99.90;;;;;;5060314;28;20037;-54
2023/01/16 11:24:18;;;;;;;2.20;0.82;;;6.60;99.90;;;;;;5056027;28;20546;-54
2023/01/16 11:26:53;;;;;;;0.45;0.40;;;6.50;99.90;;;;;;5057285;28;20064;-52
2023/01/16 11:29:23;;;;;;;1.70;0.63;;;6.50;99.90;;;;;;5047183;28;20066;-56
2023/01/16 11:31:58;;;;;;;1.05;0.50;;;6.50;99.90;;;;;;5054870;28;20037;-53
2023/01/16 11:34:26;;;;;;;1.92;0.52;;;6.40;99.90;;;;;;5051419;28;20568;-53
2023/01/16 11:36:57;;;;;;;1.40;0.60;;;6.50;99.90;;;;;;5054108;28;20514;-54
2023/01/16 11:39:25;;;;;;;0.80;0.50;;;6.50;99.90;;;;;;5051231;28;20554;-55
2023/01/16 11:41:53;;;;;;;1.52;0.55;;;6.50;99.90;;;;;;5055834;28;20072;-55
2023/01/16 11:47:21;;;;;;;0.90;0.60;;;6.80;99.90;;;;;;5059197;28;20403;-55
2023/01/16 11:49:49;;;;;;;2.40;0.52;;;6.80;99.90;;;;;;5060037;28;20037;-53
2023/01/16 11:52:27;;;;;;;1.13;0.60;;;6.80;99.90;;;;;;5055945;28;20040;-54
2023/01/16 11:54:55;;;;;;;1.38;0.60;;;6.80;99.90;;;;;;5062568;28;20097;-55
2023/01/16 11:57:23;;;;;;;6.82;0.70;;;6.90;99.90;;;;;;5057350;28;20033;-54
2023/01/16 11:59:56;;;;;;;0.80;0.40;;;6.90;99.90;;;;;;5052297;28;20037;-54
2023/01/16 12:02:44;;;;;;;1.73;0.70;;;6.80;99.90;;;;;;5049857;28;20037;-57
2023/01/16 12:06:00;;;;;;;1.25;0.40;;;6.80;99.90;;;;;;5046774;28;20431;-56
2023/01/16 12:08:38;;;;;;;3.08;0.77;;;6.70;99.90;;;;;;5055628;28;20424;-52
2023/01/16 12:11:10;;;;;;;2.60;0.50;;;6.70;99.90;;;;;;5050666;28;20090;-55
2023/01/16 12:14:18;;;;;;;1.50;0.47;;;6.60;99.90;;;;;;5052124;28;20131;-55
2023/01/16 12:17:08;;;;;;;2.20;0.60;;;6.50;99.90;;;;;;5046245;28;20043;-53
2023/01/16 12:19:46;;;;;;;1.35;0.63;;;6.50;99.90;;;;;;5049388;28;20045;-53
2023/01/16 12:22:58;;;;;;;1.83;0.70;;;6.50;99.90;;;;;;5052948;28;20762;-56
2023/01/16 12:25:46;;;;;;;1.90;0.60;;;6.50;99.90;;;;;;5022469;28;20044;-56
2023/01/16 12:28:24;;;;;;;4.53;0.95;;;6.60;99.90;;;;;;5031937;28;20451;-55
2023/01/16 12:31:21;;;;;;;1.77;0.60;;;6.60;99.90;;;;;;5044865;28;20037;-56
2023/01/16 12:33:57;;;;;;;2.67;0.80;;;6.60;99.90;;;;;;5049053;28;20040;-56
2023/01/16 12:36:47;;;;;;;1.27;0.73;;;6.50;99.90;;;;;;5052932;28;20495;-55
2023/01/16 12:39:24;;;;;;;2.03;0.90;;;6.50;99.90;;;;;;5057063;28;20120;-56
2023/01/16 12:45:24;;;;;;;4.30;1.08;;;6.50;99.90;;;;;;5050647;28;20104;-54
2023/01/16 12:48:10;;;;;;;3.17;1.60;;;6.50;99.90;;;;;;5014188;28;20231;-53
2023/01/16 12:50:42;;;;;;;2.75;1.83;;;6.50;99.90;;;;;;5046991;28;20052;-53
2023/01/16 12:53:27;;;;;;;3.38;1.40;;;6.50;99.90;;;;;;5050308;28;20048;-53
2023/01/16 12:56:07;;;;;;;2.67;1.50;;;6.60;99.90;;;;;;5049485;28;20082;-55
2023/01/16 12:58:37;;;;;;;2.38;1.00;;;6.60;99.90;;;;;;5053525;28;20045;-55
2023/01/16 13:01:19;;;;;;;3.15;1.00;;;6.50;99.90;;;;;;5046866;28;20796;-54
2023/01/16 13:03:54;;;;;;;4.87;0.83;;;6.40;99.90;;;;;;5046681;28;20053;-53
2023/01/16 13:06:46;;;;;;;1.55;0.88;;;6.50;99.90;;;;;;5050419;28;20438;-55
2023/01/16 13:09:28;;;;;;;4.43;1.52;;;6.30;99.90;;;;;;5047827;28;20036;-53
2023/01/16 13:14:57;;;;;;;3.30;1.13;;;6.30;99.90;;;;;;5048222;28;20076;-53
2023/01/16 13:17:27;;;;;;;1.42;1.00;;;6.30;99.90;;;;;;5044071;28;20603;-53
2023/01/16 13:19:53;;;;;;;4.68;1.23;;;6.40;99.90;;;;;;5043318;28;20045;-56
2023/01/16 13:22:26;;;;;;;2.75;0.93;;;6.50;99.90;;;;;;5052444;28;20125;-55
2023/01/16 13:25:18;;;;;;;4.28;2.45;;;6.40;99.90;;;;;;5053741;28;20484;-56
2023/01/16 13:27:48;;;;;;;4.32;1.23;;;6.40;99.90;;;;;;5050474;28;20071;-53
2023/01/16 13:30:17;;;;;;;2.60;1.08;;;6.50;99.90;;;;;;5049246;28;20048;-54
2023/01/16 13:32:50;;;;;;;3.58;1.90;;;6.50;99.90;;;;;;5058644;28;20082;-56
2023/01/16 13:35:34;;;;;;;4.25;1.63;;;6.40;99.90;;;;;;5058237;28;20033;-55
2023/01/16 13:38:28;;;;;;;2.80;1.20;;;6.30;99.90;;;;;;5056354;28;20033;-55
2023/01/16 13:41:10;;;;;;;2.75;1.55;;;6.30;99.90;;;;;;5057919;28;20044;-53
2023/01/16 13:46:52;;;;;;;3.13;1.90;;;6.40;99.90;;;;;;5062930;28;20039;-56
2023/01/16 13:49:24;;;;;;;1.70;0.75;;;6.50;99.90;;;;;;5060163;28;20569;-53
2023/01/16 13:51:51;;;;;;;3.47;1.05;;;6.40;99.90;;;;;;5052943;28;20119;-56
2023/01/16 13:54:29;;;;;;;2.03;1.00;;;6.30;99.90;;;;;;5055061;28;20476;-56
2023/01/16 13:57:07;;;;;;;1.52;1.10;;;6.40;99.90;;;;;;5065718;28;20051;-53
2023/01/16 13:59:55;;;;;;;2.55;1.20;;;6.40;99.90;;;;;;5056028;28;20128;-56
2023/01/16 14:02:36;;;;;;;1.55;0.88;;;6.40;99.90;;;;;;5052752;28;20080;-55
2023/01/16 14:05:04;;;;;;;2.58;1.25;;;6.50;99.90;;;;;;5055304;28;20927;-56
2023/01/16 14:10:45;;;;;;;2.42;0.93;;;6.50;99.90;;;;;;5051711;28;20105;-54
2023/01/16 14:13:26;;;;;;;2.08;0.90;;;6.40;99.90;;;;;;5049799;28;20044;-54
2023/01/16 14:16:30;;;;;;;2.15;1.23;;;6.30;99.90;;;;;;5054889;28;20044;-53
2023/01/16 14:18:55;;;;;;;1.77;0.93;;;6.30;99.90;;;;;;5041524;28;20045;-53